Situação meteorológica que não inspira cuidado.   -   Não há avisos

Nearby METAR Reports

 

LEZL - Sevilla, Spain
Distance from station: ENE 8km
Actualizado: 21/10/2017 08:30
Mist, Parcialmente nublado
Mist, Parcialmente nublado
 Vento de NE
Vento: NE 4 km/h
Temperatura: 19°C
Ponto de Orvalho: 18°C
Humidade: 94%
Barómetro: 1023 hPa
Resumo: Mist
Clouds: Parcialmente nublado
Visibility: 5 km
2017/10/21 06:30 LEZL 210630Z 04002KT 5000 BR NSC 19/18 Q1023 NOSIG
LEMO - Morón, Spain
Distance from station: SE 43km
Actualizado: 21/10/2017 08:21
Mist, Encoberto
Mist, Encoberto
 Vento de N
Vento: N 6 km/h
Temperatura: 17°C
Ponto de Orvalho: 16°C
Humidade: 94%
Barómetro: 1023 hPa
Resumo: Mist
Clouds: Encoberto
Visibility: 4 km
Cloud details: Few Clouds 914 m
Encoberto 1524 m
2017/10/21 06:21 LEMO 210621Z 01003KT 4000 BR FEW030 OVC050 17/16 Q1023 NOSIG
LEJR - Jeréz, Spain
Distance from station: S 71km
Actualizado: 21/10/2017 08:30
Nevoeiro, Encoberto
Nevoeiro, Encoberto
 Vento de N
Vento: N 6 km/h
Temperatura: 18°C
Ponto de Orvalho: 18°C
Humidade: 100%
Barómetro: 1023 hPa
Resumo: Nevoeiro
Clouds: Encoberto
Visibility: 0 km
Cloud details: Encoberto 30 m
2017/10/21 06:30 LEJR 210630Z 01003KT 340V040 0200 R20/0650D FG VV001 18/18 Q1023
 
LERT - Rota, Spain
Distance from station: SSW 89km
Actualizado: 21/10/2017 08:00
Nevoeiro, Encoberto
Nevoeiro, Encoberto
 Vento de N
Vento: N 11 km/h
Temperatura: 18°C
Ponto de Orvalho: 17°C
Humidade: 94%
Barómetro: 1022 hPa
Resumo: Nevoeiro
Clouds: Encoberto
Visibility: 1 km
Cloud details: Encoberto 30 m
2017/10/21 06:00 LERT 210600Z 01006KT 340V040 0900 R10/P2000 FG VV001 18/17 Q1022 NOSIG
LEMG - Málaga, Spain
Distance from station: ESE 157km
Actualizado: 21/10/2017 08:00
Céu limpo
Céu limpo
 Vento de NW
Vento: NW 11 km/h
Temperatura: 16°C
Ponto de Orvalho: 14°C
Humidade: 88%
Barómetro: 1022 hPa
Resumo: Céu limpo
Visibility: greater than 10 km
2017/10/21 06:00 LEMG 210600Z 32006KT CAVOK 16/14 Q1022 NOSIG
LEBA - Córdoba, Spain
Distance from station: ENE 115km
Actualizado: 21/10/2017 08:00
Muito nublado
Muito nublado
 Vento de calm
Vento: Calmo
Temperatura: 17°C
Ponto de Orvalho: 15°C
Humidade: 88%
Barómetro: 1024 hPa
Clouds: Muito nublado
Visibility: 10 km
Cloud details: Muito nublado 975 m
2017/10/21 06:00 LEBA 210600Z 00000KT 9999 BKN032 17/15 Q1024
 
LEGR - Granada, Spain
Distance from station: E 198km
Actualizado: 21/10/2017 08:00
Céu limpo
Céu limpo
 Vento de calm
Vento: Calmo
Temperatura: 9°C
Ponto de Orvalho: 9°C
Humidade: 100%
Barómetro: 1025 hPa
Resumo: Céu limpo
Visibility: greater than 10 km
2017/10/21 06:00 LEGR 210600Z 00000KT CAVOK 09/09 Q1025
LEAM - Almería, Spain
Distance from station: E 326km
Actualizado: 21/10/2017 08:00
Céu limpo
Céu limpo
 Vento de N
Vento: N 4 km/h
Temperatura: 16°C
Ponto de Orvalho: 12°C
Humidade: 77%
Barómetro: 1021 hPa
Resumo: Céu limpo
Visibility: greater than 10 km
2017/10/21 06:00 LEAM 210600Z 35002KT CAVOK 16/12 Q1021
LEMD - Madrid/Barajas, Spain
Distance from station: NNE 402km
Actualizado: 21/10/2017 08:00
Mist, Muito nublado
Mist, Muito nublado
 Vento de varies
Vento: varies 2 km/h
Temperatura: 14°C
Ponto de Orvalho: 14°C
Humidade: 100%
Barómetro: 1023 hPa
Resumo: Mist
Clouds: Muito nublado
Visibility: 3 km
Cloud details: Parcialmente nublado 61 m
Muito nublado 244 m
2017/10/21 06:00 LEMD 210600Z VRB01KT 3000 BR SCT002 BKN008 14/14 Q1023 TEMPO 2500 BR BKN004
 
LEVD - Valladolid, Spain
Distance from station: N 492km
Actualizado: 21/10/2017 08:00
Muito nublado
Muito nublado
 Vento de WSW
Vento: WSW 17 km/h
Temperatura: 13°C
Ponto de Orvalho: 12°C
Humidade: 94%
Barómetro: 1023 hPa
Clouds: Muito nublado
Visibility: 8 km
Cloud details: Parcialmente nublado 244 m
Muito nublado 305 m
2017/10/21 06:00 LEVD 210600Z 25009KT 8000 SCT008 BKN010 13/12 Q1023
LEBL - Barcelona, Spain
Distance from station: NE 816km
Actualizado: 21/10/2017 08:00
Céu limpo
Céu limpo
 Vento de NW
Vento: NW 9 km/h
Temperatura: 15°C
Ponto de Orvalho: 13°C
Humidade: 88%
Barómetro: 1019 hPa
Resumo: Céu limpo
Visibility: greater than 10 km
2017/10/21 06:00 LEBL 210600Z 31005KT 270V340 CAVOK 15/13 Q1019 NOSIG
LEVC - Valencia, Spain
Distance from station: ENE 535km
Actualizado: 21/10/2017 08:00
Céu limpo
Céu limpo
 Vento de WNW
Vento: WNW 6 km/h
Temperatura: 13°C
Ponto de Orvalho: 12°C
Humidade: 94%
Barómetro: 1021 hPa
Resumo: Céu limpo
Visibility: greater than 10 km
2017/10/21 06:00 LEVC 210600Z 29003KT 250V320 CAVOK 13/12 Q1021 NOSIG